Time;durP1;ratioP1;P1;durP2;ratioP2;P2;SDS_P1;SDS_P2;PMS_P1;PMS_P2;Temp;Humidity;BMP_temperature;BMP_pressure;BME280_temperature;BME280_humidity;BME280_pressure;Samples;Min_cycle;Max_cycle;Signal;HPM_P1;HPM_P2
2021/01/05 00:00:47;;;;;;;;;;;;;;;-3.76;92.97;92154.84;1061625;56;20698;-83
2021/01/05 00:01:47;;;;;;;;;;;;;;;-3.67;93.10;92158.72;1059679;56;20576;-83
2021/01/05 00:02:48;;;;;;;;;;;;;;;-3.76;92.78;92158.22;1057403;56;20193;-85
2021/01/05 00:03:48;;;;;;;;;;;;;;;-3.75;92.90;92158.97;1059450;56;20181;-84
2021/01/05 00:04:50;;;;;;;;;;;;;;;-3.70;92.16;92156.06;1063838;55;20173;-83
2021/01/05 00:05:50;;;;;;;;;;;;;;;-3.70;91.80;92154.19;1065959;55;20215;-83
2021/01/05 00:06:54;;;;;;;;;;;;;;;-3.73;91.78;92159.34;1065885;55;20174;-84
2021/01/05 00:07:55;;;;;;;;;;;;;;;-3.66;91.69;92160.22;1063678;55;20176;-84
2021/01/05 00:08:55;;;;;;;;;;;;;;;-3.67;91.78;92163.19;1059413;56;20204;-82
2021/01/05 00:09:55;;;;;;;;;;;;;;;-3.66;91.67;92164.69;1063540;55;20173;-82
2021/01/05 00:10:56;;;;;;;;;;;;;;;-3.67;91.40;92156.13;1066340;55;20174;-84
2021/01/05 00:12:02;;;;;;;;;;;;;;;-3.69;91.67;92166.13;1063690;55;20157;-84
2021/01/05 00:13:03;;;;;;;;;;;;;;;-3.64;91.61;92155.44;1061387;56;20670;-84
2021/01/05 00:14:03;;;;;;;;;;;;;;;-3.63;91.31;92158.78;1061565;56;20185;-84
2021/01/05 00:15:05;;;;;;;;;;;;;;;-3.53;91.54;92162.66;1063699;55;20181;-85
2021/01/05 00:16:06;;;;;;;;;;;;;;;-3.52;91.93;92161.53;1061577;56;20320;-81
2021/01/05 00:17:06;;;;;;;;;;;;;;;-3.65;91.92;92148.69;1061589;56;20670;-84
2021/01/05 00:18:11;;;;;;;;;;;;;;;-3.71;91.74;92155.31;1065802;55;20184;-84
2021/01/05 00:19:11;;;;;;;;;;;;;;;-3.77;91.04;92159.31;1065788;55;20168;-84
2021/01/05 00:20:14;;;;;;;;;;;;;;;-3.66;91.09;92155.00;1063607;55;20150;-83
2021/01/05 00:21:14;;;;;;;;;;;;;;;-3.75;91.62;92154.50;1061566;56;20193;-83
2021/01/05 00:22:19;;;;;;;;;;;;;;;-3.67;91.45;92157.97;1063918;55;20192;-85
2021/01/05 00:23:20;;;;;;;;;;;;;;;-3.75;92.64;92159.72;1063600;55;20173;-83
2021/01/05 00:24:20;;;;;;;;;;;;;;;-3.75;91.67;92162.31;1063710;55;20170;-83
2021/01/05 00:25:21;;;;;;;;;;;;;;;-3.78;91.74;92159.66;1063702;55;20165;-84
2021/01/05 00:26:21;;;;;;;;;;;;;;;-3.80;91.63;92162.62;1063673;55;20158;-82
2021/01/05 00:27:22;;;;;;;;;;;;;;;-3.85;92.04;92153.22;1063612;55;20669;-82
2021/01/05 00:28:22;;;;;;;;;;;;;;;-3.80;92.78;92160.00;1061411;56;20161;-84
2021/01/05 00:29:23;;;;;;;;;;;;;;;-3.79;92.22;92158.91;1061374;56;20165;-83
2021/01/05 00:30:26;;;;;;;;;;;;;;;-3.87;91.98;92152.06;1061762;56;20170;-82
2021/01/05 00:31:27;;;;;;;;;;;;;;;-3.90;93.20;92158.00;1061656;56;20158;-84
2021/01/05 00:32:27;;;;;;;;;;;;;;;-3.75;92.39;92153.75;1061535;56;20177;-83
2021/01/05 00:33:28;;;;;;;;;;;;;;;-3.78;92.79;92151.81;1063733;55;20192;-83
2021/01/05 00:34:28;;;;;;;;;;;;;;;-3.76;92.43;92153.00;1065825;55;20154;-82
2021/01/05 00:35:30;;;;;;;;;;;;;;;-3.76;92.92;92160.06;1065837;55;20153;-84
2021/01/05 00:36:31;;;;;;;;;;;;;;;-3.80;92.72;92154.78;1059539;56;20189;-83
2021/01/05 00:37:32;;;;;;;;;;;;;;;-3.78;92.81;92157.78;1059444;56;20277;-84
2021/01/05 00:38:32;;;;;;;;;;;;;;;-3.72;92.69;92158.28;1063760;55;20201;-84
2021/01/05 00:39:32;;;;;;;;;;;;;;;-3.76;92.60;92150.37;1061372;56;20174;-85
2021/01/05 00:40:34;;;;;;;;;;;;;;;-3.77;92.49;92164.53;1059338;56;20234;-83
2021/01/05 00:41:34;;;;;;;;;;;;;;;-3.78;92.02;92159.66;1059391;56;20622;-83
2021/01/05 00:42:35;;;;;;;;;;;;;;;-3.87;92.18;92162.50;1061380;56;20158;-83
2021/01/05 00:43:36;;;;;;;;;;;;;;;-3.74;92.21;92158.59;1061600;56;20596;-84
2021/01/05 00:44:36;;;;;;;;;;;;;;;-3.67;92.17;92168.41;1061519;56;20182;-83
2021/01/05 00:45:37;;;;;;;;;;;;;;;-3.74;92.30;92160.47;1063645;56;20189;-82
2021/01/05 00:46:38;;;;;;;;;;;;;;;-3.81;91.74;92163.72;1061437;56;20189;-84
2021/01/05 00:47:40;;;;;;;;;;;;;;;-3.83;92.25;92164.06;1061629;55;20636;-85
2021/01/05 00:48:41;;;;;;;;;;;;;;;-3.91;93.00;92164.28;1063710;56;20173;-84
2021/01/05 00:49:42;;;;;;;;;;;;;;;-3.85;93.61;92168.91;1063717;55;20638;-83
2021/01/05 00:50:42;;;;;;;;;;;;;;;-3.86;93.62;92161.41;1063500;56;20166;-83
2021/01/05 00:51:43;;;;;;;;;;;;;;;-3.97;93.48;92171.66;1064911;55;20169;-83
2021/01/05 00:52:43;;;;;;;;;;;;;;;-3.87;93.51;92165.09;1063619;56;20254;-85
2021/01/05 00:53:44;;;;;;;;;;;;;;;-3.89;93.78;92162.84;1061562;56;20235;-83
2021/01/05 00:54:44;;;;;;;;;;;;;;;-3.93;93.87;92162.03;1061464;56;20181;-83
2021/01/05 00:55:45;;;;;;;;;;;;;;;-3.86;93.61;92164.78;1061421;56;20181;-83
2021/01/05 00:56:58;;;;;;;;;;;;;;;-3.84;93.41;92167.78;1061422;56;20151;-84
2021/01/05 00:57:59;;;;;;;;;;;;;;;-3.82;93.73;92164.81;1064130;55;20725;-84
2021/01/05 00:58:59;;;;;;;;;;;;;;;-3.87;93.34;92165.09;1061682;56;20163;-84
2021/01/05 01:00:00;;;;;;;;;;;;;;;-3.87;93.10;92162.50;1061491;56;20169;-83
2021/01/05 01:01:00;;;;;;;;;;;;;;;-3.97;93.21;92166.44;1063688;56;20173;-83
2021/01/05 01:02:01;;;;;;;;;;;;;;;-4.01;93.51;92172.72;1059336;56;20264;-84
2021/01/05 01:03:03;;;;;;;;;;;;;;;-3.93;93.63;92169.88;1061668;55;20157;-83
2021/01/05 01:04:03;;;;;;;;;;;;;;;-3.90;94.08;92168.44;1061534;56;20156;-83
2021/01/05 01:05:05;;;;;;;;;;;;;;;-3.88;94.05;92169.59;1059357;56;20181;-83
2021/01/05 01:06:06;;;;;;;;;;;;;;;-3.95;94.02;92169.47;1061518;56;20228;-83
2021/01/05 01:07:07;;;;;;;;;;;;;;;-3.93;93.49;92175.09;1063697;56;20634;-86
2021/01/05 01:08:08;;;;;;;;;;;;;;;-3.88;94.07;92163.59;1061473;56;20189;-85
2021/01/05 01:09:11;;;;;;;;;;;;;;;-3.92;93.14;92168.00;1063698;56;20158;-85
2021/01/05 01:10:12;;;;;;;;;;;;;;;-4.00;93.34;92169.75;1063588;56;20150;-83
2021/01/05 01:11:16;;;;;;;;;;;;;;;-4.02;94.34;92166.00;1063752;55;20181;-84
2021/01/05 01:12:19;;;;;;;;;;;;;;;-4.02;94.47;92171.22;1061583;56;20635;-83
2021/01/05 01:13:19;;;;;;;;;;;;;;;-3.93;94.50;92166.50;1059612;56;20392;-84
2021/01/05 01:14:20;;;;;;;;;;;;;;;-3.92;94.30;92175.84;1061543;56;20200;-85
2021/01/05 01:15:20;;;;;;;;;;;;;;;-3.95;94.57;92177.31;1063780;56;20181;-84
2021/01/05 01:16:22;;;;;;;;;;;;;;;-3.87;93.99;92171.09;1065820;55;20160;-83
2021/01/05 01:17:23;;;;;;;;;;;;;;;-3.80;93.13;92181.66;1061472;56;20642;-85
2021/01/05 01:18:24;;;;;;;;;;;;;;;-3.88;93.18;92176.66;1061525;55;20162;-84
2021/01/05 01:19:25;;;;;;;;;;;;;;;-3.83;93.53;92171.91;1061371;56;20146;-85
2021/01/05 01:20:26;;;;;;;;;;;;;;;-3.77;92.83;92185.44;1059403;56;20635;-83
2021/01/05 01:21:26;;;;;;;;;;;;;;;-3.89;92.92;92177.78;1061625;56;20166;-84
2021/01/05 01:22:26;;;;;;;;;;;;;;;-3.86;92.85;92188.28;1061584;56;20185;-83
2021/01/05 01:23:27;;;;;;;;;;;;;;;-3.82;92.28;92191.69;1061594;56;20301;-84
2021/01/05 01:24:27;;;;;;;;;;;;;;;-3.88;92.51;92189.72;1065727;55;20172;-83
2021/01/05 01:25:28;;;;;;;;;;;;;;;-3.78;92.44;92185.75;1061513;56;20150;-84
2021/01/05 01:26:28;;;;;;;;;;;;;;;-3.85;93.09;92191.62;1061564;56;20155;-84
2021/01/05 01:27:29;;;;;;;;;;;;;;;-3.87;93.00;92189.34;1061411;56;20606;-83
2021/01/05 01:28:29;;;;;;;;;;;;;;;-3.87;92.34;92191.22;1063703;56;20200;-84
2021/01/05 01:29:29;;;;;;;;;;;;;;;-3.96;92.51;92194.06;1063565;56;20695;-84
2021/01/05 01:30:30;;;;;;;;;;;;;;;-3.93;93.28;92197.84;1061530;56;20209;-83
2021/01/05 01:31:30;;;;;;;;;;;;;;;-3.93;92.50;92195.97;1061557;56;20169;-85
2021/01/05 01:32:35;;;;;;;;;;;;;;;-3.95;92.98;92187.75;1061794;56;20271;-84
2021/01/05 01:33:35;;;;;;;;;;;;;;;-3.98;92.78;92198.13;1061788;56;20177;-83
2021/01/05 01:34:35;;;;;;;;;;;;;;;-3.94;92.62;92196.34;1063791;55;20162;-84
2021/01/05 01:35:36;;;;;;;;;;;;;;;-4.01;92.45;92194.34;1063623;55;20174;-84
2021/01/05 01:36:37;;;;;;;;;;;;;;;-4.00;93.08;92197.69;1061617;56;20170;-83
2021/01/05 01:37:37;;;;;;;;;;;;;;;-4.00;93.05;92197.69;1061690;56;20166;-84
2021/01/05 01:38:37;;;;;;;;;;;;;;;-3.98;92.80;92198.13;1063710;55;20224;-84
2021/01/05 01:39:39;;;;;;;;;;;;;;;-3.96;92.64;92198.53;1061471;56;20182;-84
2021/01/05 01:40:42;;;;;;;;;;;;;;;-3.89;92.57;92201.25;1061891;55;20264;-84
2021/01/05 01:41:43;;;;;;;;;;;;;;;-3.94;93.33;92204.91;1061710;56;20161;-84
2021/01/05 01:42:43;;;;;;;;;;;;;;;-4.00;93.15;92200.31;1061809;56;20154;-85
2021/01/05 01:43:43;;;;;;;;;;;;;;;-4.04;92.81;92208.06;1063938;55;20154;-83
2021/01/05 01:44:44;;;;;;;;;;;;;;;-4.10;92.93;92205.00;1061814;55;20155;-83
2021/01/05 01:45:45;;;;;;;;;;;;;;;-4.04;93.28;92205.47;1061907;56;20189;-84
2021/01/05 01:46:45;;;;;;;;;;;;;;;-4.07;93.78;92206.94;1061618;56;20200;-84
2021/01/05 01:47:46;;;;;;;;;;;;;;;-3.95;92.72;92213.06;1061984;55;20185;-83
2021/01/05 01:48:47;;;;;;;;;;;;;;;-3.98;92.47;92205.97;1064003;55;20219;-83
2021/01/05 01:49:48;;;;;;;;;;;;;;;-4.06;92.32;92210.28;1064067;55;20216;-84
2021/01/05 01:50:49;;;;;;;;;;;;;;;-4.03;92.54;92206.25;1064147;55;21241;-84
2021/01/05 01:51:51;;;;;;;;;;;;;;;-4.08;92.99;92208.03;1063303;56;20215;-84
2021/01/05 01:53:04;;;;;;;;;;;;;;;-4.05;92.19;92214.41;1061860;56;20185;-85
2021/01/05 01:54:05;;;;;;;;;;;;;;;-4.07;92.76;92206.19;1062125;56;20181;-85
2021/01/05 01:55:12;;;;;;;;;;;;;;;-4.06;92.96;92205.81;1064034;55;20285;-83
2021/01/05 01:56:15;;;;;;;;;;;;;;;-4.07;93.19;92206.94;1064011;55;20176;-83
2021/01/05 01:57:16;;;;;;;;;;;;;;;-3.99;93.30;92204.44;1061850;56;20741;-84
2021/01/05 01:58:35;;;;;;;;;;;;;;;-3.93;92.20;92209.03;1059799;56;20205;-83
2021/01/05 01:59:41;;;;;;;;;;;;;;;-3.91;92.78;92206.06;1060210;56;20213;-83
2021/01/05 02:00:53;;;;;;;;;;;;;;;-3.96;92.70;92208.97;1062016;56;20158;-83
2021/01/05 02:02:06;;;;;;;;;;;;;;;-4.02;91.70;92203.28;1062129;56;21269;-84
2021/01/05 02:03:22;;;;;;;;;;;;;;;-4.14;92.71;92208.66;1064415;55;20200;-85
2021/01/05 02:04:43;;;;;;;;;;;;;;;-4.17;92.62;92206.72;1061735;56;20159;-83
2021/01/05 02:05:53;;;;;;;;;;;;;;;-4.21;92.55;92209.28;1061082;56;20601;-83
2021/01/05 02:07:17;;;;;;;;;;;;;;;-4.17;93.13;92210.13;1064409;55;20313;-85
2021/01/05 02:08:20;;;;;;;;;;;;;;;-4.14;93.60;92201.56;1063991;55;20185;-84
2021/01/05 02:09:39;;;;;;;;;;;;;;;-4.18;93.58;92202.63;1061955;56;20583;-83
2021/01/05 02:10:42;;;;;;;;;;;;;;;-4.07;93.24;92203.56;1062316;56;20178;-83
2021/01/05 02:11:51;;;;;;;;;;;;;;;-4.09;92.51;92201.28;1061673;56;20158;-83
2021/01/05 02:13:05;;;;;;;;;;;;;;;-4.08;93.41;92207.28;1062064;56;20162;-85
2021/01/05 02:14:27;;;;;;;;;;;;;;;-4.09;93.39;92208.38;1062357;56;20165;-84
2021/01/05 02:15:34;;;;;;;;;;;;;;;-3.97;92.63;92210.06;1060550;56;20188;-84
2021/01/05 02:16:46;;;;;;;;;;;;;;;-4.11;92.62;92207.97;1062203;55;20181;-83
2021/01/05 02:17:57;;;;;;;;;;;;;;;-4.12;93.13;92212.44;1063966;55;20296;-82
2021/01/05 02:19:18;;;;;;;;;;;;;;;-4.07;93.48;92206.19;1064350;55;20189;-84
2021/01/05 02:20:22;;;;;;;;;;;;;;;-4.04;92.93;92205.47;1063846;55;20631;-83
2021/01/05 02:21:25;;;;;;;;;;;;;;;-4.06;92.88;92205.06;1061806;56;20161;-83
2021/01/05 02:22:37;;;;;;;;;;;;;;;-4.09;92.47;92206.50;1061769;56;20642;-82
2021/01/05 02:23:46;;;;;;;;;;;;;;;-4.10;92.54;92204.25;1064333;55;20169;-85
2021/01/05 02:25:05;;;;;;;;;;;;;;;-3.99;92.57;92202.59;1063929;55;20174;-85
2021/01/05 02:26:10;;;;;;;;;;;;;;;-4.08;92.39;92200.22;1064505;55;20176;-83
2021/01/05 02:27:11;;;;;;;;;;;;;;;-4.10;93.22;92202.38;1063901;55;20177;-85
2021/01/05 02:28:12;;;;;;;;;;;;;;;-4.02;93.02;92207.75;1063950;55;20670;-83
2021/01/05 02:29:16;;;;;;;;;;;;;;;-4.05;92.24;92211.78;1063835;55;20181;-84
2021/01/05 02:30:20;;;;;;;;;;;;;;;-4.10;92.20;92202.38;1059772;56;20185;-83
2021/01/05 02:31:35;;;;;;;;;;;;;;;-4.07;93.27;92201.72;1062071;56;20939;-82
2021/01/05 02:32:54;;;;;;;;;;;;;;;-4.12;93.09;92209.06;1062227;56;20166;-84
2021/01/05 02:34:04;;;;;;;;;;;;;;;-4.13;93.20;92203.06;1063824;55;20192;-83
2021/01/05 02:35:24;;;;;;;;;;;;;;;-4.10;93.18;92199.03;1063951;55;20267;-83
2021/01/05 02:36:37;;;;;;;;;;;;;;;-4.11;93.93;92200.88;1064507;55;20276;-85
2021/01/05 02:37:38;;;;;;;;;;;;;;;-4.14;93.88;92198.97;1064084;55;20252;-82
2021/01/05 02:38:41;;;;;;;;;;;;;;;-4.08;93.14;92202.81;1064028;55;20202;-83
2021/01/05 02:39:47;;;;;;;;;;;;;;;-4.11;93.10;92198.28;1065939;55;20243;-83
2021/01/05 02:41:06;;;;;;;;;;;;;;;-4.11;93.61;92197.53;1066029;55;20247;-84
2021/01/05 02:42:12;;;;;;;;;;;;;;;-4.07;93.19;92201.72;1060453;56;20181;-85
2021/01/05 02:43:32;;;;;;;;;;;;;;;-4.02;93.38;92202.53;1057596;56;20230;-84
2021/01/05 02:44:51;;;;;;;;;;;;;;;-4.01;93.17;92204.03;1060878;56;20636;-83
2021/01/05 02:46:19;;;;;;;;;;;;;;;-4.05;92.11;92204.72;1064489;55;20170;-83
2021/01/05 02:47:37;;;;;;;;;;;;;;;-4.06;92.93;92207.69;1055797;56;20175;-83
2021/01/05 02:48:58;;;;;;;;;;;;;;;-4.03;92.83;92214.81;1062417;56;20163;-83
2021/01/05 02:50:08;;;;;;;;;;;;;;;-4.07;92.54;92206.19;1062440;56;20249;-83
2021/01/05 02:51:09;;;;;;;;;;;;;;;-4.03;92.35;92214.06;1061868;55;20328;-85
2021/01/05 02:52:36;;;;;;;;;;;;;;;-4.14;92.93;92208.66;1063870;55;20154;-84
2021/01/05 02:53:36;;;;;;;;;;;;;;;-4.10;94.12;92212.84;1060612;55;20241;-83
2021/01/05 02:54:55;;;;;;;;;;;;;;;-4.01;93.46;92209.25;1066070;55;20181;-85
2021/01/05 02:56:16;;;;;;;;;;;;;;;-4.01;93.17;92211.84;1063941;55;20263;-84
2021/01/05 02:57:25;;;;;;;;;;;;;;;-4.07;93.29;92211.41;1065257;55;20169;-82
2021/01/05 02:58:38;;;;;;;;;;;;;;;-3.99;92.47;92218.25;1065993;55;20185;-84
2021/01/05 02:59:59;;;;;;;;;;;;;;;-4.02;92.25;92211.09;1062077;56;20189;-83
2021/01/05 03:01:11;;;;;;;;;;;;;;;-4.06;93.09;92218.13;1060816;56;20214;-83
2021/01/05 03:02:18;;;;;;;;;;;;;;;-4.02;93.06;92215.56;1060437;56;20623;-84
2021/01/05 03:03:30;;;;;;;;;;;;;;;-4.03;92.98;92214.81;1061901;56;20170;-85
2021/01/05 03:04:31;;;;;;;;;;;;;;;-4.03;93.04;92206.25;1062453;55;20301;-85
2021/01/05 03:05:31;;;;;;;;;;;;;;;-4.09;93.35;92208.38;1066012;55;20259;-84
2021/01/05 03:06:44;;;;;;;;;;;;;;;-4.02;92.18;92208.50;1065841;55;20149;-83
2021/01/05 03:07:46;;;;;;;;;;;;;;;-4.01;93.00;92211.84;1064387;55;20162;-84
2021/01/05 03:09:07;;;;;;;;;;;;;;;-4.05;92.72;92209.94;1063967;55;20155;-84
2021/01/05 03:10:11;;;;;;;;;;;;;;;-4.03;93.34;92207.00;1064679;55;20161;-82
2021/01/05 03:11:15;;;;;;;;;;;;;;;-3.98;92.17;92198.13;1066078;55;20180;-85
2021/01/05 03:12:31;;;;;;;;;;;;;;;-4.00;92.56;92206.28;1065875;55;20590;-83
2021/01/05 03:13:52;;;;;;;;;;;;;;;-4.01;93.23;92199.56;1062295;56;20189;-83
2021/01/05 03:14:59;;;;;;;;;;;;;;;-4.04;93.59;92200.25;1063057;55;20177;-83
2021/01/05 03:16:03;;;;;;;;;;;;;;;-3.99;93.83;92199.22;1064223;55;20158;-83
2021/01/05 03:17:23;;;;;;;;;;;;;;;-4.12;93.02;92204.59;1063830;55;20182;-84
2021/01/05 03:18:30;;;;;;;;;;;;;;;-4.07;94.08;92206.19;1059700;56;20184;-85
2021/01/05 03:19:33;;;;;;;;;;;;;;;-4.03;94.04;92212.22;1062118;55;20178;-83
2021/01/05 03:20:37;;;;;;;;;;;;;;;-3.98;93.02;92205.97;1063881;55;20158;-84
2021/01/05 03:21:40;;;;;;;;;;;;;;;-4.00;93.24;92210.75;1063967;55;21110;-84
2021/01/05 03:22:49;;;;;;;;;;;;;;;-3.85;92.56;92202.06;1065997;55;20185;-85
2021/01/05 03:23:50;;;;;;;;;;;;;;;-3.94;92.09;92212.00;1066136;55;20209;-84
2021/01/05 03:24:51;;;;;;;;;;;;;;;-4.00;92.08;92213.38;1061793;56;20598;-83
2021/01/05 03:25:53;;;;;;;;;;;;;;;-4.05;92.72;92217.00;1061742;55;20634;-85
2021/01/05 03:26:55;;;;;;;;;;;;;;;-4.02;92.71;92215.56;1063800;55;20246;-84
2021/01/05 03:27:57;;;;;;;;;;;;;;;-4.13;93.25;92210.91;1061654;56;20711;-86
2021/01/05 03:29:00;;;;;;;;;;;;;;;-3.88;93.19;92215.81;1063895;55;20201;-83
2021/01/05 03:30:08;;;;;;;;;;;;;;;-3.89;91.71;92206.47;1066199;55;20161;-82
2021/01/05 03:31:29;;;;;;;;;;;;;;;-3.89;92.67;92212.44;1065952;55;20165;-87
2021/01/05 03:32:29;;;;;;;;;;;;;;;-3.85;91.72;92212.53;1063966;55;20667;-84
2021/01/05 03:33:33;;;;;;;;;;;;;;;-3.88;91.66;92210.59;1063599;55;20265;-84
2021/01/05 03:34:34;;;;;;;;;;;;;;;-3.96;91.69;92212.31;1063626;55;20267;-85
2021/01/05 03:35:34;;;;;;;;;;;;;;;-3.96;93.25;92207.09;1065793;55;20157;-84
2021/01/05 03:36:35;;;;;;;;;;;;;;;-3.95;92.93;92208.62;1065917;55;20162;-82
2021/01/05 03:37:35;;;;;;;;;;;;;;;-3.96;92.81;92206.34;1061485;56;20280;-83
2021/01/05 03:38:37;;;;;;;;;;;;;;;-3.86;93.37;92211.78;1063858;55;20201;-84
2021/01/05 03:39:38;;;;;;;;;;;;;;;-3.83;92.02;92211.06;1065958;55;20153;-83
2021/01/05 03:40:38;;;;;;;;;;;;;;;-3.83;92.79;92211.06;1063756;55;20154;-82
2021/01/05 03:41:39;;;;;;;;;;;;;;;-3.93;92.80;92210.87;1066011;55;20161;-86
2021/01/05 03:42:39;;;;;;;;;;;;;;;-3.90;92.59;92207.59;1063781;55;20599;-83
2021/01/05 03:43:40;;;;;;;;;;;;;;;-3.90;92.06;92204.97;1063794;55;20189;-82
2021/01/05 03:44:40;;;;;;;;;;;;;;;-3.89;92.60;92206.47;1063789;55;20677;-83
2021/01/05 03:45:40;;;;;;;;;;;;;;;-3.92;92.53;92210.53;1063774;55;20168;-83
2021/01/05 03:46:41;;;;;;;;;;;;;;;-3.88;92.82;92200.91;1063684;55;20184;-84
2021/01/05 03:47:43;;;;;;;;;;;;;;;-3.78;92.90;92202.19;1066013;55;20157;-82
2021/01/05 03:48:43;;;;;;;;;;;;;;;-3.73;91.78;92208.97;1065714;55;21190;-83
2021/01/05 03:49:43;;;;;;;;;;;;;;;-3.78;91.38;92206.66;1065948;55;20185;-84
2021/01/05 03:50:44;;;;;;;;;;;;;;;-3.78;91.36;92206.66;1065830;55;20161;-83
2021/01/05 03:51:44;;;;;;;;;;;;;;;-3.85;92.02;92212.53;1063391;55;20571;-85
2021/01/05 03:52:45;;;;;;;;;;;;;;;-3.75;91.74;92209.31;1059412;56;20162;-83
2021/01/05 03:53:45;;;;;;;;;;;;;;;-3.77;91.96;92213.41;1059536;56;20563;-85
2021/01/05 03:54:46;;;;;;;;;;;;;;;-3.83;92.58;92220.75;1061512;56;20171;-83
2021/01/05 03:55:47;;;;;;;;;;;;;;;-3.87;91.39;92214.72;1061522;56;20170;-83
2021/01/05 03:56:47;;;;;;;;;;;;;;;-3.95;91.37;92213.84;1059471;56;20181;-84
2021/01/05 03:57:48;;;;;;;;;;;;;;;-3.80;92.10;92217.44;1059355;56;20652;-84
2021/01/05 03:58:49;;;;;;;;;;;;;;;-3.90;91.92;92218.03;1063834;55;20706;-84
2021/01/05 03:59:49;;;;;;;;;;;;;;;-3.99;92.01;92218.25;1066073;55;20208;-82
2021/01/05 04:00:49;;;;;;;;;;;;;;;-3.89;91.73;92222.91;1063823;55;20642;-84
2021/01/05 04:01:51;;;;;;;;;;;;;;;-3.91;92.02;92217.25;1061541;56;20181;-85
2021/01/05 04:02:52;;;;;;;;;;;;;;;-3.81;91.90;92221.91;1059476;56;20293;-84
2021/01/05 04:03:52;;;;;;;;;;;;;;;-3.80;91.10;92217.44;1061681;55;20193;-83
2021/01/05 04:04:53;;;;;;;;;;;;;;;-3.82;91.52;92211.81;1063779;55;20188;-84
2021/01/05 04:05:53;;;;;;;;;;;;;;;-3.90;90.95;92220.63;1063861;55;20162;-84
2021/01/05 04:06:54;;;;;;;;;;;;;;;-3.93;92.37;92223.94;1063699;55;20173;-83
2021/01/05 04:07:55;;;;;;;;;;;;;;;-3.87;91.77;92223.28;1061513;56;20243;-84
2021/01/05 04:08:55;;;;;;;;;;;;;;;-3.90;92.24;92221.41;1063772;55;20650;-83
2021/01/05 04:09:56;;;;;;;;;;;;;;;-3.97;91.89;92228.34;1063582;55;20662;-85
2021/01/05 04:10:56;;;;;;;;;;;;;;;-4.02;92.17;92224.16;1063867;55;20154;-84
2021/01/05 04:11:57;;;;;;;;;;;;;;;-3.88;92.51;92218.44;1061693;56;20158;-83
2021/01/05 04:12:57;;;;;;;;;;;;;;;-3.97;92.19;92228.34;1061397;56;20647;-83
2021/01/05 04:13:58;;;;;;;;;;;;;;;-4.08;92.49;92225.56;1063855;55;20596;-85
2021/01/05 04:14:58;;;;;;;;;;;;;;;-3.99;92.91;92220.13;1061685;56;20217;-83
2021/01/05 04:15:59;;;;;;;;;;;;;;;-3.96;91.39;92227.22;1063843;55;20185;-82
2021/01/05 04:16:59;;;;;;;;;;;;;;;-3.98;91.57;92226.84;1061428;56;20634;-84
2021/01/05 04:18:00;;;;;;;;;;;;;;;-4.00;92.45;92239.47;1061556;56;20257;-84
2021/01/05 04:19:00;;;;;;;;;;;;;;;-4.03;92.49;92233.09;1061678;56;20248;-84
2021/01/05 04:20:00;;;;;;;;;;;;;;;-3.99;92.20;92230.56;1061608;56;20268;-83
2021/01/05 04:21:01;;;;;;;;;;;;;;;-4.00;92.15;92221.19;1063675;55;20239;-85
2021/01/05 04:22:01;;;;;;;;;;;;;;;-3.91;92.22;92222.47;1065955;55;20189;-83
2021/01/05 04:23:02;;;;;;;;;;;;;;;-3.88;92.89;92229.63;1061479;56;20186;-85
2021/01/05 04:24:04;;;;;;;;;;;;;;;-3.90;91.99;92231.09;1063652;55;20162;-83
2021/01/05 04:25:07;;;;;;;;;;;;;;;-3.85;91.90;92233.41;1061740;56;20185;-85
2021/01/05 04:26:10;;;;;;;;;;;;;;;-3.84;92.13;92229.69;1057238;56;20640;-82
2021/01/05 04:27:11;;;;;;;;;;;;;;;-3.87;91.35;92233.72;1057578;56;20272;-83
2021/01/05 04:28:14;;;;;;;;;;;;;;;-3.93;91.39;92231.75;1063781;55;20153;-85
2021/01/05 04:29:14;;;;;;;;;;;;;;;-3.91;92.26;92232.91;1063632;55;20153;-84
2021/01/05 04:30:23;;;;;;;;;;;;;;;-3.96;91.68;92233.19;1059401;56;20269;-83
2021/01/05 04:31:23;;;;;;;;;;;;;;;-3.95;92.02;92231.34;1059878;56;20190;-83
2021/01/05 04:32:26;;;;;;;;;;;;;;;-4.01;92.35;92243.19;1063804;55;20173;-83
2021/01/05 04:33:26;;;;;;;;;;;;;;;-3.98;92.15;92237.28;1063763;55;20146;-84
2021/01/05 04:34:28;;;;;;;;;;;;;;;-3.97;92.96;92234.31;1063830;55;20174;-83
2021/01/05 04:35:28;;;;;;;;;;;;;;;-4.03;93.64;92235.69;1063804;55;20176;-84
2021/01/05 04:36:29;;;;;;;;;;;;;;;-4.02;93.71;92244.28;1061528;56;20158;-83
2021/01/05 04:37:29;;;;;;;;;;;;;;;-3.85;93.10;92236.00;1063734;55;20669;-83
2021/01/05 04:38:32;;;;;;;;;;;;;;;-3.87;92.36;92243.41;1061362;56;20189;-82
2021/01/05 04:39:32;;;;;;;;;;;;;;;-3.87;91.82;92244.16;1061678;56;20544;-85
2021/01/05 04:40:32;;;;;;;;;;;;;;;-3.82;91.85;92243.91;1063693;55;20319;-84
2021/01/05 04:41:38;;;;;;;;;;;;;;;-3.83;91.29;92244.25;1063672;56;20243;-86
2021/01/05 04:42:41;;;;;;;;;;;;;;;-3.88;92.02;92234.09;1063900;55;20162;-83
2021/01/05 04:43:45;;;;;;;;;;;;;;;-3.76;91.29;92241.75;1063737;56;20180;-85
2021/01/05 04:44:50;;;;;;;;;;;;;;;-3.73;91.15;92243.69;1061620;56;20224;-85
2021/01/05 04:46:06;;;;;;;;;;;;;;;-3.59;90.77;92248.38;1064058;55;20718;-85
2021/01/05 04:47:17;;;;;;;;;;;;;;;-3.72;91.14;92242.56;1065744;55;20704;-84
2021/01/05 04:48:35;;;;;;;;;;;;;;;-3.90;91.81;92251.97;1063652;56;20164;-82
2021/01/05 04:49:55;;;;;;;;;;;;;;;-3.90;91.73;92242.28;1064415;55;20622;-85
2021/01/05 04:50:58;;;;;;;;;;;;;;;-3.84;91.17;92245.34;1059884;56;20219;-84
2021/01/05 04:52:08;;;;;;;;;;;;;;;-3.76;90.97;92246.97;1061056;56;20664;-83
2021/01/05 04:53:14;;;;;;;;;;;;;;;-3.86;91.12;92255.41;1059486;56;20189;-83
2021/01/05 04:54:22;;;;;;;;;;;;;;;-3.96;92.22;92256.69;1061890;55;20161;-83
2021/01/05 04:55:41;;;;;;;;;;;;;;;-3.97;92.37;92249.97;1061404;56;20618;-84
2021/01/05 04:56:49;;;;;;;;;;;;;;;-3.95;91.81;92252.22;1062985;55;20189;-83
2021/01/05 04:57:55;;;;;;;;;;;;;;;-4.00;91.79;92258.47;1063742;56;20258;-84
2021/01/05 04:58:57;;;;;;;;;;;;;;;-4.00;92.42;92258.47;1061754;56;20185;-86
2021/01/05 05:00:10;;;;;;;;;;;;;;;-4.01;92.34;92261.44;1059448;56;20162;-85
2021/01/05 05:01:19;;;;;;;;;;;;;;;-4.02;91.88;92259.94;1057980;56;20680;-84
2021/01/05 05:02:29;;;;;;;;;;;;;;;-3.97;93.24;92254.44;1059796;56;20193;-83
2021/01/05 05:03:41;;;;;;;;;;;;;;;-4.01;93.68;92258.84;1060105;56;20177;-84
2021/01/05 05:04:46;;;;;;;;;;;;;;;-4.08;93.70;92259.47;1059574;56;20696;-83
2021/01/05 05:05:52;;;;;;;;;;;;;;;-4.08;93.37;92264.69;1059758;56;20179;-84
2021/01/05 05:06:57;;;;;;;;;;;;;;;-3.93;92.23;92261.22;1063996;55;20229;-84
2021/01/05 05:07:57;;;;;;;;;;;;;;;-3.90;92.84;92265.75;1061837;56;20193;-84
2021/01/05 05:09:01;;;;;;;;;;;;;;;-3.85;91.22;92262.88;1059804;56;20177;-82
2021/01/05 05:10:03;;;;;;;;;;;;;;;-3.94;91.36;92258.97;1061911;56;20188;-84
2021/01/05 05:11:07;;;;;;;;;;;;;;;-3.92;91.56;92264.59;1061903;56;20185;-84
2021/01/05 05:12:17;;;;;;;;;;;;;;;-3.93;91.73;92266.44;1060187;56;20185;-83
2021/01/05 05:13:37;;;;;;;;;;;;;;;-3.92;91.25;92264.59;1059942;56;20205;-84
2021/01/05 05:14:45;;;;;;;;;;;;;;;-4.02;92.21;92263.31;1062529;56;20587;-83
2021/01/05 05:15:52;;;;;;;;;;;;;;;-3.94;92.31;92261.59;1062055;56;20255;-84
2021/01/05 05:16:53;;;;;;;;;;;;;;;-3.83;92.76;92265.88;1062035;56;20182;-83
2021/01/05 05:18:12;;;;;;;;;;;;;;;-3.79;91.80;92255.50;1059676;56;21237;-84
2021/01/05 05:19:24;;;;;;;;;;;;;;;-3.96;91.72;92258.53;1060932;56;20229;-85
2021/01/05 05:20:41;;;;;;;;;;;;;;;-3.89;92.51;92266.53;1062287;56;20166;-84
2021/01/05 05:21:50;;;;;;;;;;;;;;;-3.85;91.46;92264.72;1061990;56;20154;-84
2021/01/05 05:23:10;;;;;;;;;;;;;;;-3.91;91.16;92266.09;1060059;56;20276;-84
2021/01/05 05:24:36;;;;;;;;;;;;;;;-3.86;92.04;92271.06;1061005;56;20182;-84
2021/01/05 05:25:41;;;;;;;;;;;;;;;-3.76;90.81;92270.47;1063955;55;20670;-84
2021/01/05 05:26:50;;;;;;;;;;;;;;;-3.68;90.68;92264.28;1059747;56;20272;-83
2021/01/05 05:28:15;;;;;;;;;;;;;;;-3.76;90.09;92273.09;1061296;56;20185;-84
2021/01/05 05:29:22;;;;;;;;;;;;;;;-3.82;90.49;92264.00;1060745;56;20286;-85
2021/01/05 05:30:34;;;;;;;;;;;;;;;-3.90;91.27;92272.84;1062228;55;20595;-84
2021/01/05 05:31:35;;;;;;;;;;;;;;;-3.99;91.48;92269.69;1061673;56;20185;-83
2021/01/05 05:32:37;;;;;;;;;;;;;;;-3.98;91.89;92274.56;1059891;56;20225;-84
2021/01/05 05:33:38;;;;;;;;;;;;;;;-4.04;92.90;92273.31;1063974;55;20615;-85
2021/01/05 05:34:47;;;;;;;;;;;;;;;-4.11;92.15;92276.56;1061836;56;20200;-84
2021/01/05 05:36:06;;;;;;;;;;;;;;;-4.06;93.24;92276.28;1063968;55;20168;-84
2021/01/05 05:37:26;;;;;;;;;;;;;;;-3.96;92.63;92276.81;1060419;56;20701;-83
2021/01/05 05:38:35;;;;;;;;;;;;;;;-4.03;92.61;92281.91;1060282;56;20189;-84